Time;durP1;ratioP1;P1;durP2;ratioP2;P2;SDS_P1;SDS_P2;PMS_P1;PMS_P2;Temp;Humidity;BMP_temperature;BMP_pressure;BME280_temperature;BME280_humidity;BME280_pressure;Samples;Min_cycle;Max_cycle;Signal;HPM_P1;HPM_P2
2024/01/03 00:01:22;;;;;;;;;;;9.50;99.90;;;;;;5065593;28;20152;-78
2024/01/03 00:03:49;;;;;;;;;;;9.50;99.90;;;;;;5065235;28;25057;-77
2024/01/03 00:06:16;;;;;;;;;;;9.50;99.90;;;;;;5063902;28;20247;-77
2024/01/03 00:08:42;;;;;;;;;;;9.60;99.90;;;;;;5066256;28;20137;-78
2024/01/03 00:11:14;;;;;;;;;;;9.50;99.90;;;;;;5064854;28;25074;-78
2024/01/03 00:14:08;;;;;;;;;;;9.60;99.90;;;;;;5065253;28;19978;-78
2024/01/03 00:16:36;;;;;;;;;;;9.50;99.90;;;;;;5061412;28;25143;-77
2024/01/03 00:19:03;;;;;;;;;;;9.50;99.90;;;;;;5060592;28;19991;-77
2024/01/03 00:21:30;;;;;;;;;;;9.50;99.90;;;;;;5061628;28;20168;-77
2024/01/03 00:23:58;;;;;;;;;;;9.50;99.90;;;;;;5060263;28;19984;-77
2024/01/03 00:26:26;;;;;;;;;;;9.50;99.90;;;;;;5063350;28;25059;-78
2024/01/03 00:28:53;;;;;;;;;;;9.50;99.90;;;;;;5066865;28;20006;-78
2024/01/03 00:31:30;;;;;;;;;;;9.40;99.90;;;;;;5066661;28;25160;-78
2024/01/03 00:33:57;;;;;;;;;;;9.40;99.90;;;;;;5066147;28;20071;-75
2024/01/03 00:36:23;;;;;;;;;;;9.40;99.90;;;;;;5061970;28;25070;-77
2024/01/03 00:38:50;;;;;;;;;;;9.40;99.90;;;;;;5069727;28;19984;-78
2024/01/03 00:41:17;;;;;;;;;;;9.40;99.90;;;;;;5066452;28;19969;-77
2024/01/03 00:43:44;;;;;;;;;;;9.40;99.90;;;;;;5066947;28;19978;-78
2024/01/03 00:46:12;;;;;;;;;;;9.40;99.90;;;;;;5064876;28;20011;-78
2024/01/03 00:48:40;;;;;;;;;;;9.40;99.90;;;;;;5071107;28;19947;-77
2024/01/03 00:51:07;;;;;;;;;;;9.30;99.90;;;;;;5065771;28;25108;-77
2024/01/03 00:53:34;;;;;;;;;;;9.30;99.90;;;;;;5064822;28;20024;-78
2024/01/03 00:56:01;;;;;;;;;;;9.40;99.90;;;;;;5066760;28;19978;-77
2024/01/03 00:58:27;;;;;;;;;;;9.30;99.90;;;;;;5067570;28;19998;-77
2024/01/03 01:00:55;;;;;;;;;;;9.40;99.90;;;;;;5065421;28;20730;-77
2024/01/03 01:03:22;;;;;;;;;;;9.40;99.90;;;;;;5068543;28;19928;-77
2024/01/03 01:05:49;;;;;;;;;;;9.30;99.90;;;;;;5068220;28;19957;-78
2024/01/03 01:08:15;;;;;;;;;;;9.30;99.90;;;;;;5067240;28;25071;-79
2024/01/03 01:10:42;;;;;;;;;;;9.30;99.90;;;;;;5063159;28;19968;-77
2024/01/03 01:13:08;;;;;;;;;;;9.30;99.90;;;;;;5065557;28;19982;-77
2024/01/03 01:15:35;;;;;;;;;;;9.30;99.90;;;;;;5066538;28;20635;-77
2024/01/03 01:18:03;;;;;;;;;;;9.30;99.90;;;;;;5065717;28;19959;-77
2024/01/03 01:20:30;;;;;;;;;;;9.20;99.90;;;;;;5065707;28;19931;-77
2024/01/03 01:22:56;;;;;;;;;;;9.20;99.90;;;;;;5064764;28;20211;-78
2024/01/03 01:25:23;;;;;;;;;;;9.30;99.90;;;;;;5067046;28;19924;-78
2024/01/03 01:27:49;;;;;;;;;;;9.20;99.90;;;;;;5066904;28;19990;-78
2024/01/03 01:30:16;;;;;;;;;;;9.20;99.90;;;;;;5070587;28;19974;-76
2024/01/03 01:32:42;;;;;;;;;;;9.20;99.90;;;;;;5064966;28;20352;-79
2024/01/03 01:35:10;;;;;;;;;;;9.30;99.90;;;;;;5067580;28;19989;-78
2024/01/03 01:37:37;;;;;;;;;;;9.20;99.90;;;;;;5067787;28;19970;-78
2024/01/03 01:40:03;;;;;;;;;;;9.20;99.90;;;;;;5065811;28;25078;-77
2024/01/03 01:42:31;;;;;;;;;;;9.20;99.90;;;;;;5066234;28;19975;-78
2024/01/03 01:44:58;;;;;;;;;;;9.20;99.90;;;;;;5066436;28;20522;-77
2024/01/03 01:47:25;;;;;;;;;;;9.20;99.90;;;;;;5061271;28;25114;-78
2024/01/03 01:49:52;;;;;;;;;;;9.20;99.90;;;;;;5064892;28;19962;-77
2024/01/03 01:52:21;;;;;;;;;;;9.20;99.90;;;;;;5066751;28;20011;-77
2024/01/03 01:54:47;;;;;;;;;;;9.10;99.90;;;;;;5060744;28;19940;-77
2024/01/03 01:57:14;;;;;;;;;;;9.20;99.90;;;;;;5063531;28;19959;-78
2024/01/03 01:59:42;;;;;;;;;;;9.20;99.90;;;;;;5066434;28;19974;-78
2024/01/03 02:02:08;;;;;;;;;;;9.10;99.90;;;;;;5061954;28;19932;-78
2024/01/03 02:04:35;;;;;;;;;;;9.10;99.90;;;;;;5066716;28;20334;-77
2024/01/03 02:07:02;;;;;;;;;;;9.20;99.90;;;;;;5067189;28;20577;-77
2024/01/03 02:09:30;;;;;;;;;;;9.10;99.90;;;;;;5064451;28;19929;-77
2024/01/03 02:11:56;;;;;;;;;;;9.10;99.90;;;;;;5068922;28;19936;-78
2024/01/03 02:14:23;;;;;;;;;;;9.10;99.90;;;;;;5065031;28;19929;-77
2024/01/03 02:16:49;;;;;;;;;;;9.10;99.90;;;;;;5061279;28;19928;-77
2024/01/03 02:19:16;;;;;;;;;;;9.10;99.90;;;;;;5060946;28;19925;-77
2024/01/03 02:21:44;;;;;;;;;;;9.10;99.90;;;;;;5062150;28;19932;-77
2024/01/03 02:24:10;;;;;;;;;;;9.10;99.90;;;;;;5059014;28;20013;-76
2024/01/03 02:26:37;;;;;;;;;;;9.10;99.90;;;;;;5061222;28;19941;-77
2024/01/03 02:29:03;;;;;;;;;;;9.10;99.90;;;;;;5067682;28;19987;-77
2024/01/03 02:31:30;;;;;;;;;;;9.10;99.90;;;;;;5061085;28;19970;-77
2024/01/03 02:33:57;;;;;;;;;;;9.10;99.90;;;;;;5061075;28;25065;-78
2024/01/03 02:36:24;;;;;;;;;;;9.10;99.90;;;;;;5062707;28;19972;-77
2024/01/03 02:38:52;;;;;;;;;;;9.10;99.90;;;;;;5065108;28;19955;-77
2024/01/03 02:41:19;;;;;;;;;;;9.10;99.90;;;;;;5058748;28;19962;-77
2024/01/03 02:43:45;;;;;;;;;;;9.10;99.90;;;;;;5063793;28;19931;-78
2024/01/03 02:46:12;;;;;;;;;;;9.10;99.90;;;;;;5058420;28;19928;-76
2024/01/03 02:48:39;;;;;;;;;;;9.10;99.90;;;;;;5062309;28;20363;-77
2024/01/03 02:51:05;;;;;;;;;;;9.10;99.90;;;;;;5063110;28;19937;-77
2024/01/03 02:53:32;;;;;;;;;;;9.10;99.90;;;;;;5061506;28;20487;-77
2024/01/03 02:56:00;;;;;;;;;;;9.20;99.90;;;;;;5060321;28;20389;-77
2024/01/03 02:58:27;;;;;;;;;;;9.10;99.90;;;;;;5063933;28;19954;-78
2024/01/03 03:00:53;;;;;;;;;;;9.10;99.90;;;;;;5063374;28;19973;-77
2024/01/03 03:03:20;;;;;;;;;;;9.10;99.90;;;;;;5062020;28;19954;-78
2024/01/03 03:05:46;;;;;;;;;;;9.10;99.90;;;;;;5062410;28;20298;-77
2024/01/03 03:08:13;;;;;;;;;;;9.10;99.90;;;;;;5059034;28;19936;-77
2024/01/03 03:10:39;;;;;;;;;;;9.20;99.90;;;;;;5062508;28;19924;-77
2024/01/03 03:13:07;;;;;;;;;;;9.20;99.90;;;;;;5064846;28;20313;-77
2024/01/03 03:15:33;;;;;;;;;;;9.20;99.90;;;;;;5060313;28;20390;-76
2024/01/03 03:18:01;;;;;;;;;;;9.20;99.90;;;;;;5062385;28;19924;-77
2024/01/03 03:20:27;;;;;;;;;;;9.10;99.90;;;;;;5060449;28;19924;-76
2024/01/03 03:22:54;;;;;;;;;;;9.20;99.90;;;;;;5060337;28;19997;-77
2024/01/03 03:25:20;;;;;;;;;;;9.20;99.90;;;;;;5059288;28;19951;-78
2024/01/03 03:27:47;;;;;;;;;;;9.20;99.90;;;;;;5063530;28;19998;-76
2024/01/03 03:30:15;;;;;;;;;;;9.10;99.90;;;;;;5065034;28;20359;-77
2024/01/03 03:32:44;;;;;;;;;;;9.20;99.90;;;;;;5064049;28;20325;-78
2024/01/03 03:35:11;;;;;;;;;;;9.20;99.90;;;;;;5062789;28;19986;-76
2024/01/03 03:37:37;;;;;;;;;;;9.20;99.90;;;;;;5063072;28;19928;-78
2024/01/03 03:40:04;;;;;;;;;;;9.20;99.90;;;;;;5062660;28;19992;-77
2024/01/03 03:42:31;;;;;;;;;;;9.20;99.90;;;;;;5060041;28;19978;-77
2024/01/03 03:44:57;;;;;;;;;;;9.20;99.90;;;;;;5061243;28;19935;-77
2024/01/03 03:47:25;;;;;;;;;;;9.20;99.90;;;;;;5063314;28;20469;-77
2024/01/03 03:49:52;;;;;;;;;;;9.20;99.90;;;;;;5063442;28;19954;-77
2024/01/03 03:52:18;;;;;;;;;;;9.20;99.90;;;;;;5062074;28;19924;-77
2024/01/03 03:54:45;;;;;;;;;;;9.20;99.90;;;;;;5062313;28;19981;-78
2024/01/03 03:57:11;;;;;;;;;;;9.20;99.90;;;;;;5062544;28;20368;-77
2024/01/03 03:59:38;;;;;;;;;;;9.20;99.90;;;;;;5061128;28;19924;-76
2024/01/03 04:02:04;;;;;;;;;;;9.20;99.90;;;;;;5061502;28;19959;-77
2024/01/03 04:04:32;;;;;;;;;;;9.20;99.90;;;;;;5063870;28;19924;-77
2024/01/03 04:06:59;;;;;;;;;;;9.20;99.90;;;;;;5069751;28;19928;-77
2024/01/03 04:09:26;;;;;;;;;;;9.20;99.90;;;;;;5066047;28;19928;-77
2024/01/03 04:11:53;;;;;;;;;;;9.20;99.90;;;;;;5064678;28;19924;-77
2024/01/03 04:14:20;;;;;;;;;;;9.20;99.90;;;;;;5065565;28;19929;-77
2024/01/03 04:16:46;;;;;;;;;;;9.20;99.90;;;;;;5064186;28;19991;-77
2024/01/03 04:19:13;;;;;;;;;;;9.20;99.90;;;;;;5066289;28;20284;-78
2024/01/03 04:21:41;;;;;;;;;;;9.20;99.90;;;;;;5061027;28;19928;-77
2024/01/03 04:24:07;;;;;;;;;;;9.20;99.90;;;;;;5066893;28;19929;-78
2024/01/03 04:26:34;;;;;;;;;;;9.20;99.90;;;;;;5065924;28;19924;-77
2024/01/03 04:29:00;;;;;;;;;;;9.30;99.90;;;;;;5070800;28;20348;-78
2024/01/03 04:31:27;;;;;;;;;;;9.20;99.90;;;;;;5063742;28;20374;-77
2024/01/03 04:33:53;;;;;;;;;;;9.20;99.90;;;;;;5062591;28;19928;-77
2024/01/03 04:36:20;;;;;;;;;;;9.20;99.90;;;;;;5062083;28;19954;-77
2024/01/03 04:38:48;;;;;;;;;;;9.20;99.90;;;;;;5066167;28;19932;-76
2024/01/03 04:41:16;;;;;;;;;;;9.20;99.90;;;;;;5068502;28;20398;-77
2024/01/03 04:43:43;;;;;;;;;;;9.20;99.90;;;;;;5065762;28;19924;-77
2024/01/03 04:46:09;;;;;;;;;;;9.20;99.90;;;;;;5062807;28;20406;-78
2024/01/03 04:48:36;;;;;;;;;;;9.30;99.90;;;;;;5066213;28;19978;-77
2024/01/03 04:51:02;;;;;;;;;;;9.20;99.90;;;;;;5068565;28;19925;-77
2024/01/03 04:53:29;;;;;;;;;;;9.20;99.90;;;;;;5065068;28;19920;-77
2024/01/03 04:55:56;;;;;;;;;;;9.20;99.90;;;;;;5065176;28;20320;-78
2024/01/03 04:58:23;;;;;;;;;;;9.20;99.90;;;;;;5068368;28;19924;-78
2024/01/03 05:00:50;;;;;;;;;;;9.30;99.90;;;;;;5065348;28;20454;-77
2024/01/03 05:03:16;;;;;;;;;;;9.20;99.90;;;;;;5065313;28;19981;-77
2024/01/03 05:05:43;;;;;;;;;;;9.30;99.90;;;;;;5059799;28;19928;-77
2024/01/03 05:08:09;;;;;;;;;;;9.20;99.90;;;;;;5063907;28;19936;-77
2024/01/03 05:10:36;;;;;;;;;;;9.30;99.90;;;;;;5067067;28;19928;-77
2024/01/03 05:13:04;;;;;;;;;;;9.30;99.90;;;;;;5065956;28;20317;-77
2024/01/03 05:15:30;;;;;;;;;;;9.30;99.90;;;;;;5065566;28;20561;-77
2024/01/03 05:17:57;;;;;;;;;;;9.20;99.90;;;;;;5066675;28;19958;-77
2024/01/03 05:20:23;;;;;;;;;;;9.30;99.90;;;;;;5062454;28;19932;-78
2024/01/03 05:22:50;;;;;;;;;;;9.20;99.90;;;;;;5064561;28;19929;-76
2024/01/03 05:25:16;;;;;;;;;;;9.30;99.90;;;;;;5067744;28;19947;-77
2024/01/03 05:27:43;;;;;;;;;;;9.30;99.90;;;;;;5068767;28;20002;-76
2024/01/03 05:30:12;;;;;;;;;;;9.20;99.90;;;;;;5060933;28;19932;-77
2024/01/03 05:32:38;;;;;;;;;;;9.30;99.90;;;;;;5063396;28;19925;-77
2024/01/03 05:35:05;;;;;;;;;;;9.30;99.90;;;;;;5064744;28;19928;-77
2024/01/03 05:37:32;;;;;;;;;;;9.30;99.90;;;;;;5057619;28;19931;-78
2024/01/03 05:39:59;;;;;;;;;;;9.30;99.90;;;;;;5067859;28;19924;-78
2024/01/03 05:42:25;;;;;;;;;;;9.30;99.90;;;;;;5069815;28;19924;-77
2024/01/03 05:44:52;;;;;;;;;;;9.20;99.90;;;;;;5065028;28;20703;-78
2024/01/03 05:47:19;;;;;;;;;;;9.30;99.90;;;;;;5061258;28;19954;-77
2024/01/03 05:49:46;;;;;;;;;;;9.30;99.90;;;;;;5063587;28;19931;-78
2024/01/03 05:52:13;;;;;;;;;;;9.30;99.90;;;;;;5065009;28;19928;-77
2024/01/03 05:54:40;;;;;;;;;;;9.30;99.90;;;;;;5061408;28;20402;-77
2024/01/03 05:57:06;;;;;;;;;;;9.30;99.90;;;;;;5067543;28;19924;-77
2024/01/03 05:59:33;;;;;;;;;;;9.30;99.90;;;;;;5064291;28;19967;-78
2024/01/03 06:01:59;;;;;;;;;;;9.30;99.90;;;;;;5063193;28;20006;-77
2024/01/03 06:04:27;;;;;;;;;;;9.40;99.90;;;;;;5064297;28;20348;-76
2024/01/03 06:06:54;;;;;;;;;;;9.30;99.90;;;;;;5062864;28;19924;-77
2024/01/03 06:09:20;;;;;;;;;;;9.30;99.90;;;;;;5062261;28;20314;-76
2024/01/03 06:11:47;;;;;;;;;;;9.30;99.90;;;;;;5060878;28;19932;-77
2024/01/03 06:14:14;;;;;;;;;;;9.30;99.90;;;;;;5059763;28;19932;-76
2024/01/03 06:16:40;;;;;;;;;;;9.30;99.90;;;;;;5059874;28;19935;-78
2024/01/03 06:19:07;;;;;;;;;;;9.30;99.90;;;;;;5063252;28;20386;-77
2024/01/03 06:21:35;;;;;;;;;;;9.30;99.90;;;;;;5062191;28;19958;-77
2024/01/03 06:24:02;;;;;;;;;;;9.30;99.90;;;;;;5060942;28;20404;-77
2024/01/03 06:26:30;;;;;;;;;;;9.30;99.90;;;;;;5062784;28;19931;-78
2024/01/03 06:28:57;;;;;;;;;;;9.30;99.90;;;;;;5060578;28;20465;-77
2024/01/03 06:31:23;;;;;;;;;;;9.30;99.90;;;;;;5062514;28;19947;-77
2024/01/03 06:33:50;;;;;;;;;;;9.40;99.90;;;;;;5060062;28;20094;-78
2024/01/03 06:36:16;;;;;;;;;;;9.40;99.90;;;;;;5060902;28;20382;-77
2024/01/03 06:38:44;;;;;;;;;;;9.30;99.90;;;;;;5058202;28;19931;-77
2024/01/03 06:41:11;;;;;;;;;;;9.30;99.90;;;;;;5063064;28;19982;-77
2024/01/03 06:43:37;;;;;;;;;;;9.30;99.90;;;;;;5060381;28;20739;-77
2024/01/03 06:46:05;;;;;;;;;;;9.30;99.90;;;;;;5056015;28;20009;-76
2024/01/03 06:48:31;;;;;;;;;;;9.30;99.90;;;;;;5066192;28;19924;-67
2024/01/03 06:51:01;;;;;;;;;;;9.30;99.90;;;;;;5062818;28;19969;-68
2024/01/03 06:53:28;;;;;;;;;;;9.30;99.90;;;;;;5067823;28;20007;-67
2024/01/03 06:55:56;;;;;;;;;;;9.30;99.90;;;;;;5062580;28;19928;-67
2024/01/03 06:58:22;;;;;;;;;;;9.30;99.90;;;;;;5067553;28;19924;-67
2024/01/03 07:00:49;;;;;;;;;;;9.30;99.90;;;;;;5064496;28;19982;-65
2024/01/03 07:03:16;;;;;;;;;;;9.40;99.90;;;;;;5062207;28;19925;-67
2024/01/03 07:05:42;;;;;;;;;;;9.30;99.90;;;;;;5065957;28;19931;-67
2024/01/03 07:08:09;;;;;;;;;;;9.30;99.90;;;;;;5063885;28;20676;-67
2024/01/03 07:10:36;;;;;;;;;;;9.30;99.90;;;;;;5065918;28;19931;-67
2024/01/03 07:13:04;;;;;;;;;;;9.30;99.90;;;;;;5065139;28;19924;-67
2024/01/03 07:15:31;;;;;;;;;;;9.30;99.90;;;;;;5064540;28;19932;-67
2024/01/03 07:17:59;;;;;;;;;;;9.30;99.90;;;;;;5061276;28;21424;-69
2024/01/03 07:20:26;;;;;;;;;;;9.30;99.90;;;;;;5062593;28;19924;-68
2024/01/03 07:22:52;;;;;;;;;;;9.30;99.90;;;;;;5060514;28;19931;-67
2024/01/03 07:25:19;;;;;;;;;;;9.30;99.90;;;;;;5062681;28;19927;-67
2024/01/03 07:27:46;;;;;;;;;;;9.30;99.90;;;;;;5065177;28;19932;-68
2024/01/03 07:30:15;;;;;;;;;;;9.30;99.90;;;;;;5064335;28;19931;-67
2024/01/03 07:32:41;;;;;;;;;;;9.30;99.90;;;;;;5061421;28;20504;-66
2024/01/03 07:35:08;;;;;;;;;;;9.40;99.90;;;;;;5062635;28;19924;-67
2024/01/03 07:37:35;;;;;;;;;;;9.30;99.90;;;;;;5064964;28;20614;-66
2024/01/03 07:40:01;;;;;;;;;;;9.30;99.90;;;;;;5068212;28;19978;-67
2024/01/03 07:42:28;;;;;;;;;;;9.30;99.90;;;;;;5066404;28;20394;-66
2024/01/03 07:44:54;;;;;;;;;;;9.30;99.90;;;;;;5067039;28;19928;-67
2024/01/03 07:47:22;;;;;;;;;;;9.30;99.90;;;;;;5069465;28;20430;-67
2024/01/03 07:49:49;;;;;;;;;;;9.40;99.90;;;;;;5065687;28;19924;-65
2024/01/03 07:52:15;;;;;;;;;;;9.40;99.90;;;;;;5069681;28;20009;-67
2024/01/03 07:54:42;;;;;;;;;;;9.40;99.90;;;;;;5067328;28;19924;-68
2024/01/03 07:57:08;;;;;;;;;;;9.40;99.90;;;;;;5068398;28;20036;-67
2024/01/03 07:59:34;;;;;;;;;;;9.40;99.90;;;;;;5065682;28;19924;-67
2024/01/03 08:02:00;;;;;;;;;;;9.40;99.90;;;;;;5066651;28;19924;-65
2024/01/03 08:04:28;;;;;;;;;;;9.40;99.90;;;;;;5065319;28;20030;-66
2024/01/03 08:06:55;;;;;;;;;;;9.40;99.90;;;;;;5065533;28;20390;-67
2024/01/03 08:09:22;;;;;;;;;;;9.40;99.90;;;;;;5066916;28;19924;-66
2024/01/03 08:11:48;;;;;;;;;;;9.40;99.90;;;;;;5070038;28;19928;-67
2024/01/03 08:14:15;;;;;;;;;;;9.40;99.90;;;;;;5064728;28;20409;-67
2024/01/03 08:16:41;;;;;;;;;;;9.40;99.90;;;;;;5066157;28;20027;-67
2024/01/03 08:19:08;;;;;;;;;;;9.40;99.90;;;;;;5065375;28;20271;-66
2024/01/03 08:21:36;;;;;;;;;;;9.40;99.90;;;;;;5065221;28;19928;-67
2024/01/03 08:24:02;;;;;;;;;;;9.40;99.90;;;;;;5064407;28;19924;-66
2024/01/03 08:26:29;;;;;;;;;;;9.40;99.90;;;;;;5063667;28;19932;-66
2024/01/03 08:28:55;;;;;;;;;;;9.40;99.90;;;;;;5066929;28;19924;-66
2024/01/03 08:31:22;;;;;;;;;;;9.40;99.90;;;;;;5066058;28;19932;-66
2024/01/03 08:33:48;;;;;;;;;;;9.40;99.90;;;;;;5066825;28;20301;-68
2024/01/03 08:36:15;;;;;;;;;;;9.40;99.90;;;;;;5063496;28;19931;-65
2024/01/03 08:38:43;;;;;;;;;;;9.40;99.90;;;;;;5070373;28;19924;-64
2024/01/03 08:41:13;;;;;;;;;;;9.50;99.90;;;;;;5062467;28;19924;-64
2024/01/03 08:43:40;;;;;;;;;;;9.40;99.90;;;;;;5068042;28;19924;-64
2024/01/03 08:46:07;;;;;;;;;;;9.40;99.90;;;;;;5065618;28;19974;-63
2024/01/03 08:48:33;;;;;;;;;;;9.50;99.90;;;;;;5069580;28;19993;-64
2024/01/03 08:51:00;;;;;;;;;;;9.50;99.90;;;;;;5065460;28;19928;-65
2024/01/03 08:53:26;;;;;;;;;;;9.40;99.90;;;;;;5068461;28;19932;-65
2024/01/03 08:55:54;;;;;;;;;;;9.40;99.90;;;;;;5064355;28;19924;-65
2024/01/03 08:58:20;;;;;;;;;;;9.40;99.90;;;;;;5068046;28;19928;-66
2024/01/03 09:00:47;;;;;;;;;;;9.40;99.90;;;;;;5067165;28;20534;-65
2024/01/03 09:03:13;;;;;;;;;;;9.40;99.90;;;;;;5066928;28;19924;-65
2024/01/03 09:05:40;;;;;;;;;;;9.40;99.90;;;;;;5065389;28;19928;-66
2024/01/03 09:08:07;;;;;;;;;;;9.50;99.90;;;;;;5065710;28;20442;-66
2024/01/03 09:10:35;;;;;;;;;;;9.40;99.90;;;;;;5068783;28;20405;-65
2024/01/03 09:13:03;;;;;;;;;;;9.40;99.90;;;;;;5067493;28;19929;-64
2024/01/03 09:15:29;;;;;;;;;;;9.40;99.90;;;;;;5064265;28;19994;-66
2024/01/03 09:17:56;;;;;;;;;;;9.40;99.90;;;;;;5066198;28;19924;-68
2024/01/03 09:20:21;;;;;;;;;;;9.40;99.90;;;;;;5065734;28;19932;-67
2024/01/03 09:22:48;;;;;;;;;;;9.40;99.90;;;;;;5061214;28;19943;-66
2024/01/03 09:25:14;;;;;;;;;;;9.40;99.90;;;;;;5066660;28;19924;-67
2024/01/03 09:27:41;;;;;;;;;;;9.40;99.90;;;;;;5069492;28;19932;-65
2024/01/03 09:30:09;;;;;;;;;;;9.40;99.90;;;;;;5065847;28;19974;-66
2024/01/03 09:32:36;;;;;;;;;;;9.40;99.90;;;;;;5068412;28;20422;-68
2024/01/03 09:35:03;;;;;;;;;;;9.40;99.90;;;;;;5066021;28;19928;-67
2024/01/03 09:37:29;;;;;;;;;;;9.50;99.90;;;;;;5067913;28;20458;-67
2024/01/03 09:39:56;;;;;;;;;;;9.40;99.90;;;;;;5065194;28;19928;-67
2024/01/03 09:42:23;;;;;;;;;;;9.40;99.90;;;;;;5069902;28;20390;-68
2024/01/03 09:44:51;;;;;;;;;;;9.50;99.90;;;;;;5069028;28;20676;-66
2024/01/03 09:47:20;;;;;;;;;;;9.50;99.90;;;;;;5066894;28;19970;-66
2024/01/03 09:49:47;;;;;;;;;;;9.50;99.90;;;;;;5067451;28;19924;-67
2024/01/03 09:52:13;;;;;;;;;;;9.50;99.90;;;;;;5064480;28;20352;-67
2024/01/03 09:54:40;;;;;;;;;;;9.40;99.90;;;;;;5062476;28;19925;-67
2024/01/03 09:57:09;;;;;;;;;;;9.50;99.90;;;;;;5064078;28;19924;-67
2024/01/03 09:59:36;;;;;;;;;;;9.50;99.90;;;;;;5068372;28;19931;-67
2024/01/03 10:02:02;;;;;;;;;;;9.50;99.90;;;;;;5066054;28;19940;-68
2024/01/03 10:04:30;;;;;;;;;;;9.50;99.90;;;;;;5067842;28;19924;-67
2024/01/03 10:06:58;;;;;;;;;;;9.50;99.90;;;;;;5064017;28;19947;-65
2024/01/03 10:09:24;;;;;;;;;;;9.50;99.90;;;;;;5066241;28;20011;-67
2024/01/03 10:11:52;;;;;;;;;;;9.50;99.90;;;;;;5067449;28;19924;-66
2024/01/03 10:14:20;;;;;;;;;;;9.50;99.90;;;;;;5065499;28;19931;-67
2024/01/03 10:16:47;;;;;;;;;;;9.50;99.90;;;;;;5063847;28;20496;-67
2024/01/03 10:19:14;;;;;;;;;;;9.50;99.90;;;;;;5064831;28;19932;-66
2024/01/03 10:21:48;;;;;;;;;;;9.50;99.90;;;;;;5063713;28;19931;-67
2024/01/03 10:24:14;;;;;;;;;;;9.50;99.90;;;;;;5063057;28;19921;-67
2024/01/03 10:26:41;;;;;;;;;;;9.50;99.90;;;;;;5067004;28;19931;-68
2024/01/03 10:29:11;;;;;;;;;;;9.50;99.90;;;;;;5066914;28;19929;-67
2024/01/03 10:31:37;;;;;;;;;;;9.50;99.90;;;;;;5066456;28;19978;-66
2024/01/03 10:34:05;;;;;;;;;;;9.50;99.90;;;;;;5070928;28;19936;-66
2024/01/03 10:36:32;;;;;;;;;;;9.50;99.90;;;;;;5066380;28;20019;-67
2024/01/03 10:39:01;;;;;;;;;;;9.50;99.90;;;;;;5063079;28;19924;-65
2024/01/03 10:41:27;;;;;;;;;;;9.50;99.90;;;;;;5064413;28;19924;-68
2024/01/03 10:43:55;;;;;;;;;;;9.50;99.90;;;;;;5065914;28;19975;-68
2024/01/03 10:46:22;;;;;;;;;;;9.50;99.90;;;;;;5061484;28;19942;-67
2024/01/03 10:48:48;;;;;;;;;;;9.50;99.90;;;;;;5060366;28;20309;-67
2024/01/03 10:51:17;;;;;;;;;;;9.60;99.90;;;;;;5062964;28;19924;-67
2024/01/03 10:53:44;;;;;;;;;;;9.50;99.90;;;;;;5066805;28;19924;-66
2024/01/03 10:56:12;;;;;;;;;;;9.50;99.90;;;;;;5064419;28;20340;-67
2024/01/03 10:58:40;;;;;;;;;;;9.50;99.90;;;;;;5067949;28;19931;-66
2024/01/03 11:01:13;;;;;;;;;;;9.50;99.90;;;;;;5063349;28;19928;-67
2024/01/03 11:03:43;;;;;;;;;;;9.50;99.90;;;;;;5064512;28;19973;-66
2024/01/03 11:06:17;;;;;;;;;;;9.50;99.90;;;;;;5064275;28;19928;-67
2024/01/03 11:08:47;;;;;;;;;;;9.50;99.90;;;;;;5060090;28;20050;-66
2024/01/03 11:11:28;;;;;;;;;;;9.50;99.90;;;;;;5068368;28;19931;-67
2024/01/03 11:13:55;;;;;;;;;;;9.50;99.90;;;;;;5062299;28;19928;-66
2024/01/03 11:16:33;;;;;;;;;;;9.50;99.90;;;;;;5058467;28;19943;-76
2024/01/03 11:19:00;;;;;;;;;;;9.50;99.90;;;;;;5062661;28;19931;-77
2024/01/03 11:21:46;;;;;;;;;;;9.50;99.90;;;;;;5064011;28;19931;-78
2024/01/03 11:24:31;;;;;;;;;;;9.50;99.90;;;;;;5060296;28;20014;-77
2024/01/03 11:27:04;;;;;;;;;;;9.50;99.90;;;;;;5056882;28;19931;-80
2024/01/03 11:29:43;;;;;;;;;;;9.50;99.90;;;;;;5059263;28;19954;-77
2024/01/03 11:32:10;;;;;;;;;;;9.50;99.90;;;;;;5060513;28;20014;-75
2024/01/03 11:34:37;;;;;;;;;;;9.50;99.90;;;;;;5064446;28;20565;-79
2024/01/03 11:37:04;;;;;;;;;;;9.50;99.90;;;;;;5064228;28;19967;-79
2024/01/03 11:39:34;;;;;;;;;;;9.50;99.90;;;;;;5062385;28;19924;-80
2024/01/03 11:42:02;;;;;;;;;;;9.50;99.90;;;;;;5059556;28;19939;-79
2024/01/03 11:44:29;;;;;;;;;;;9.50;99.90;;;;;;5058724;28;19947;-77
2024/01/03 11:46:59;;;;;;;;;;;9.50;99.90;;;;;;5062930;28;19954;-78
2024/01/03 11:49:25;;;;;;;;;;;9.50;99.90;;;;;;5066692;28;19932;-78
2024/01/03 11:51:52;;;;;;;;;;;9.60;99.90;;;;;;5065362;28;19924;-77
2024/01/03 11:54:18;;;;;;;;;;;9.60;99.90;;;;;;5060779;28;19924;-76
2024/01/03 11:56:45;;;;;;;;;;;9.60;99.90;;;;;;5062005;28;19978;-78
2024/01/03 11:59:13;;;;;;;;;;;9.60;99.90;;;;;;5061785;28;19924;-77
2024/01/03 12:01:54;;;;;;;;;;;9.60;99.90;;;;;;5062671;28;19924;-78
2024/01/03 12:04:21;;;;;;;;;;;9.60;99.90;;;;;;5058520;28;20741;-77
2024/01/03 12:06:47;;;;;;;;;;;9.60;99.90;;;;;;5058404;28;19925;-78
2024/01/03 12:09:14;;;;;;;;;;;9.60;99.90;;;;;;5056965;28;19967;-78
2024/01/03 12:11:41;;;;;;;;;;;9.60;99.90;;;;;;5061583;28;25128;-79
2024/01/03 12:14:07;;;;;;;;;;;9.60;99.90;;;;;;5059715;28;19928;-78
2024/01/03 12:16:46;;;;;;;;;;;9.60;99.90;;;;;;5059990;28;19940;-78
2024/01/03 12:19:21;;;;;;;;;;;9.60;99.90;;;;;;5061767;28;20087;-77
2024/01/03 12:21:53;;;;;;;;;;;9.60;99.90;;;;;;5059190;28;19963;-77
2024/01/03 12:24:19;;;;;;;;;;;9.60;99.90;;;;;;5057365;28;19928;-67
2024/01/03 12:26:48;;;;;;;;;;;9.70;99.90;;;;;;5066275;28;19960;-67
2024/01/03 12:29:15;;;;;;;;;;;9.70;99.90;;;;;;5068326;28;19986;-67
2024/01/03 12:31:41;;;;;;;;;;;9.70;99.90;;;;;;5064685;28;20142;-67
2024/01/03 12:34:09;;;;;;;;;;;9.70;99.90;;;;;;5065067;28;19958;-67
2024/01/03 12:36:36;;;;;;;;;;;9.70;99.90;;;;;;5064746;28;19944;-67
2024/01/03 12:39:02;;;;;;;;;;;9.70;99.90;;;;;;5065914;28;19928;-67
2024/01/03 12:41:29;;;;;;;;;;;9.70;99.90;;;;;;5064899;28;19924;-67
2024/01/03 12:43:55;;;;;;;;;;;9.70;99.90;;;;;;5068787;28;25082;-67
2024/01/03 12:46:22;;;;;;;;;;;9.80;99.90;;;;;;5062789;28;19959;-66
2024/01/03 12:48:48;;;;;;;;;;;9.80;99.90;;;;;;5065219;28;20609;-67
2024/01/03 12:51:16;;;;;;;;;;;9.70;99.90;;;;;;5062910;28;20103;-66
2024/01/03 12:53:43;;;;;;;;;;;9.80;99.90;;;;;;5066838;28;25131;-67
2024/01/03 12:56:09;;;;;;;;;;;9.80;99.90;;;;;;5063592;28;19984;-67
2024/01/03 12:58:36;;;;;;;;;;;9.80;99.90;;;;;;5067701;28;20104;-66
2024/01/03 13:01:02;;;;;;;;;;;9.80;99.90;;;;;;5068593;28;25124;-67
2024/01/03 13:03:29;;;;;;;;;;;9.80;99.90;;;;;;5064154;28;20363;-66
2024/01/03 13:05:55;;;;;;;;;;;9.90;99.90;;;;;;5065409;28;19959;-67
2024/01/03 13:08:23;;;;;;;;;;;9.80;99.90;;;;;;5059403;28;19935;-67
2024/01/03 13:10:50;;;;;;;;;;;9.90;99.90;;;;;;5065410;28;19934;-66
2024/01/03 13:13:16;;;;;;;;;;;9.90;99.90;;;;;;5064226;28;19986;-67
2024/01/03 13:15:44;;;;;;;;;;;9.90;99.90;;;;;;5065826;28;19958;-68
2024/01/03 13:18:11;;;;;;;;;;;9.90;99.90;;;;;;5062801;28;19939;-67
2024/01/03 13:20:38;;;;;;;;;;;9.90;99.90;;;;;;5068261;28;25076;-67
2024/01/03 13:23:04;;;;;;;;;;;9.90;99.90;;;;;;5062145;28;19983;-76
2024/01/03 13:25:32;;;;;;;;;;;9.90;99.90;;;;;;5055218;28;25052;-76
2024/01/03 13:27:59;;;;;;;;;;;9.90;99.90;;;;;;5067567;28;19982;-78
2024/01/03 13:30:25;;;;;;;;;;;9.90;99.90;;;;;;5066039;28;20173;-78
2024/01/03 13:32:52;;;;;;;;;;;10.00;99.90;;;;;;5066653;28;20022;-78
2024/01/03 13:35:19;;;;;;;;;;;10.00;99.90;;;;;;5062488;28;19982;-77
2024/01/03 13:37:45;;;;;;;;;;;10.00;99.90;;;;;;5062934;28;20223;-78
2024/01/03 13:40:12;;;;;;;;;;;10.00;99.90;;;;;;5058400;28;20271;-78
2024/01/03 13:42:40;;;;;;;;;;;10.00;99.90;;;;;;5062188;28;20146;-78
2024/01/03 13:45:07;;;;;;;;;;;10.00;99.90;;;;;;5061742;28;25082;-79
2024/01/03 13:47:34;;;;;;;;;;;10.00;99.90;;;;;;5060170;28;19982;-77
2024/01/03 13:50:00;;;;;;;;;;;10.10;99.90;;;;;;5063334;28;25075;-76
2024/01/03 13:52:27;;;;;;;;;;;10.10;99.90;;;;;;5064223;28;20047;-78
2024/01/03 13:54:53;;;;;;;;;;;10.10;99.90;;;;;;5061157;28;20068;-77
2024/01/03 13:57:20;;;;;;;;;;;10.10;99.90;;;;;;5061833;28;25075;-78
2024/01/03 13:59:48;;;;;;;;;;;10.10;99.90;;;;;;5065272;28;20030;-77
2024/01/03 14:02:15;;;;;;;;;;;10.10;99.90;;;;;;5057989;28;20577;-78
2024/01/03 14:04:41;;;;;;;;;;;10.20;99.90;;;;;;5060629;28;20149;-79
2024/01/03 14:07:08;;;;;;;;;;;10.10;99.90;;;;;;5063726;28;20188;-78
2024/01/03 14:09:34;;;;;;;;;;;10.10;99.90;;;;;;5057579;28;20127;-78
2024/01/03 14:12:01;;;;;;;;;;;10.20;99.90;;;;;;5060444;28;25059;-76
2024/01/03 14:14:29;;;;;;;;;;;10.20;99.90;;;;;;5065389;28;19983;-78
2024/01/03 14:17:00;;;;;;;;;;;10.20;99.90;;;;;;5059412;28;20015;-78
2024/01/03 14:19:26;;;;;;;;;;;10.20;99.90;;;;;;5062563;28;25060;-77
2024/01/03 14:21:53;;;;;;;;;;;10.20;99.90;;;;;;5060970;28;20014;-76
2024/01/03 14:24:20;;;;;;;;;;;10.20;99.90;;;;;;5063075;28;25187;-76
2024/01/03 14:26:47;;;;;;;;;;;10.20;99.90;;;;;;5060161;28;19984;-77
2024/01/03 14:29:13;;;;;;;;;;;10.20;99.90;;;;;;5060967;28;25101;-78